Terminal Aerodrome Forecast
Issued by NWS

Home | Current Version | Previous Version | Text Only | Print | Product List | Glossary Off
Versions: 1 2 3 4 5 6 7 8 9 10 11 12 13

000
FTUS45 KGGW 202300
TAFSDY
TAF
KSDY 202324Z 2100/2124 VRB03KT P6SM FEW080 SCT250
     FM210130 34004KT P6SM SKC
     FM211100 36005KT 6SM BR FEW015 SCT250
     FM211600 03008KT P6SM SCT080 BKN150
      AMD LTD TO CLD VIS AND WIND=

USA.gov is the U.S. government's official web portal to all federal, state and local government web resources and services.